sensor_id;sensor_type;location;lat;lon;timestamp;pressure;altitude;pressure_sealevel;temperature;humidity
9822;BME280;4950;46.042;14.472;2022-07-01T00:02:21;97684.25;;;23.57;70.34
9822;BME280;4950;46.042;14.472;2022-07-01T00:04:48;97684.53;;;23.56;70.40
9822;BME280;4950;46.042;14.472;2022-07-01T00:07:14;97675.22;;;23.53;70.63
9822;BME280;4950;46.042;14.472;2022-07-01T00:09:41;97679.47;;;23.49;70.27
9822;BME280;4950;46.042;14.472;2022-07-01T00:12:08;97679.47;;;23.49;70.08
9822;BME280;4950;46.042;14.472;2022-07-01T00:14:35;97681.34;;;23.54;70.36
9822;BME280;4950;46.042;14.472;2022-07-01T00:17:02;97691.41;;;23.57;70.13
9822;BME280;4950;46.042;14.472;2022-07-01T00:19:30;97678.16;;;23.57;70.69
9822;BME280;4950;46.042;14.472;2022-07-01T00:21:57;97684.53;;;23.56;70.75
9822;BME280;4950;46.042;14.472;2022-07-01T00:24:24;97682.94;;;23.50;70.68
9822;BME280;4950;46.042;14.472;2022-07-01T00:26:52;97680.00;;;23.46;70.94
9822;BME280;4950;46.042;14.472;2022-07-01T00:29:18;97682.41;;;23.48;70.51
9822;BME280;4950;46.042;14.472;2022-07-01T00:31:45;97684.50;;;23.51;70.29
9822;BME280;4950;46.042;14.472;2022-07-01T00:34:12;97691.66;;;23.50;70.34
9822;BME280;4950;46.042;14.472;2022-07-01T00:36:40;97695.88;;;23.51;70.76
9822;BME280;4950;46.042;14.472;2022-07-01T00:39:07;97690.59;;;23.51;70.52
9822;BME280;4950;46.042;14.472;2022-07-01T00:41:33;97691.66;;;23.50;70.63
9822;BME280;4950;46.042;14.472;2022-07-01T00:44:00;97695.88;;;23.51;70.98
9822;BME280;4950;46.042;14.472;2022-07-01T00:46:27;97698.28;;;23.53;70.49
9822;BME280;4950;46.042;14.472;2022-07-01T00:48:56;97700.63;;;23.29;71.11
9822;BME280;4950;46.042;14.472;2022-07-01T00:51:24;97706.19;;;23.27;71.30
9822;BME280;4950;46.042;14.472;2022-07-01T00:53:52;97713.03;;;23.18;70.79
9822;BME280;4950;46.042;14.472;2022-07-01T00:56:19;97717.78;;;23.11;70.76
9822;BME280;4950;46.042;14.472;2022-07-01T00:58:46;97716.19;;;23.04;71.65
9822;BME280;4950;46.042;14.472;2022-07-01T01:01:13;97717.44;;;23.02;71.80
9822;BME280;4950;46.042;14.472;2022-07-01T01:03:40;97717.16;;;22.98;71.41
9822;BME280;4950;46.042;14.472;2022-07-01T01:06:07;97717.41;;;22.92;71.97
9822;BME280;4950;46.042;14.472;2022-07-01T01:08:35;97713.97;;;22.91;71.94
9822;BME280;4950;46.042;14.472;2022-07-01T01:11:05;97709.19;;;22.88;71.42
9822;BME280;4950;46.042;14.472;2022-07-01T01:13:32;97711.31;;;22.91;72.52
9822;BME280;4950;46.042;14.472;2022-07-01T01:15:59;97712.91;;;22.92;72.20
9822;BME280;4950;46.042;14.472;2022-07-01T01:18:26;97712.41;;;22.95;72.19
9822;BME280;4950;46.042;14.472;2022-07-01T01:20:54;97716.34;;;22.93;71.58
9822;BME280;4950;46.042;14.472;2022-07-01T01:23:21;97715.81;;;22.91;72.30
9822;BME280;4950;46.042;14.472;2022-07-01T01:25:48;97709.47;;;22.92;72.25
9822;BME280;4950;46.042;14.472;2022-07-01T01:28:15;97708.69;;;22.91;71.92
9822;BME280;4950;46.042;14.472;2022-07-01T01:30:42;97711.59;;;22.90;72.00
9822;BME280;4950;46.042;14.472;2022-07-01T01:33:08;97708.41;;;22.93;72.09
9822;BME280;4950;46.042;14.472;2022-07-01T01:35:37;97708.16;;;22.94;72.39
9822;BME280;4950;46.042;14.472;2022-07-01T01:38:05;97702.84;;;22.89;72.19
9822;BME280;4950;46.042;14.472;2022-07-01T01:40:31;97695.94;;;22.88;72.41
9822;BME280;4950;46.042;14.472;2022-07-01T01:42:58;97701.50;;;22.86;72.43
9822;BME280;4950;46.042;14.472;2022-07-01T01:45:25;97704.63;;;22.78;72.82
9822;BME280;4950;46.042;14.472;2022-07-01T01:47:51;97700.63;;;22.71;72.67
9822;BME280;4950;46.042;14.472;2022-07-01T01:50:18;97698.78;;;22.71;72.42
9822;BME280;4950;46.042;14.472;2022-07-01T01:52:46;97694.84;;;22.74;72.68
9822;BME280;4950;46.042;14.472;2022-07-01T01:55:14;97690.88;;;22.76;72.35
9822;BME280;4950;46.042;14.472;2022-07-01T01:57:41;97690.06;;;22.76;72.36
9822;BME280;4950;46.042;14.472;2022-07-01T02:00:08;97692.44;;;22.72;72.21
9822;BME280;4950;46.042;14.472;2022-07-01T02:02:35;97695.63;;;22.74;72.61
9822;BME280;4950;46.042;14.472;2022-07-01T02:05:02;97690.81;;;22.71;72.31
9822;BME280;4950;46.042;14.472;2022-07-01T02:07:29;97693.47;;;22.71;72.28
9822;BME280;4950;46.042;14.472;2022-07-01T02:09:56;97694.59;;;22.75;72.75
9822;BME280;4950;46.042;14.472;2022-07-01T02:12:24;97692.94;;;22.64;71.93
9822;BME280;4950;46.042;14.472;2022-07-01T02:14:50;97691.03;;;22.54;72.27
9822;BME280;4950;46.042;14.472;2022-07-01T02:17:17;97698.44;;;22.57;72.36
9822;BME280;4950;46.042;14.472;2022-07-01T02:19:44;97689.91;;;22.45;72.38
9822;BME280;4950;46.042;14.472;2022-07-01T02:22:10;97697.75;;;22.30;72.29
9822;BME280;4950;46.042;14.472;2022-07-01T02:24:37;97699.34;;;22.31;72.96
9822;BME280;4950;46.042;14.472;2022-07-01T02:27:04;97693.00;;;22.32;72.77
9822;BME280;4950;46.042;14.472;2022-07-01T02:29:33;97695.94;;;22.35;72.44
9822;BME280;4950;46.042;14.472;2022-07-01T02:31:59;97694.59;;;22.33;72.47
9822;BME280;4950;46.042;14.472;2022-07-01T02:34:26;97688.50;;;22.32;72.73
9822;BME280;4950;46.042;14.472;2022-07-01T02:36:53;97680.31;;;22.34;72.74
9822;BME280;4950;46.042;14.472;2022-07-01T02:39:20;97678.47;;;22.34;73.04
9822;BME280;4950;46.042;14.472;2022-07-01T02:41:47;97686.13;;;22.36;72.92
9822;BME280;4950;46.042;14.472;2022-07-01T02:44:33;97672.16;;;22.40;72.43
9822;BME280;4950;46.042;14.472;2022-07-01T02:47:00;97683.47;;;22.31;72.33
9822;BME280;4950;46.042;14.472;2022-07-01T02:49:27;97685.28;;;22.25;72.46
9822;BME280;4950;46.042;14.472;2022-07-01T02:51:53;97686.28;;;22.24;72.60
9822;BME280;4950;46.042;14.472;2022-07-01T02:54:20;97692.44;;;22.24;72.47
9822;BME280;4950;46.042;14.472;2022-07-01T02:56:47;97700.63;;;22.28;72.22
9822;BME280;4950;46.042;14.472;2022-07-01T02:59:13;97694.31;;;22.29;72.15
9822;BME280;4950;46.042;14.472;2022-07-01T03:01:41;97699.59;;;22.29;72.74
9822;BME280;4950;46.042;14.472;2022-07-01T03:04:08;97695.88;;;22.25;72.46
9822;BME280;4950;46.042;14.472;2022-07-01T03:06:35;97696.88;;;22.24;72.56
9822;BME280;4950;46.042;14.472;2022-07-01T03:09:02;97701.63;;;22.22;72.75
9822;BME280;4950;46.042;14.472;2022-07-01T03:11:28;97707.16;;;22.20;73.17
9822;BME280;4950;46.042;14.472;2022-07-01T03:13:55;97720.38;;;22.20;73.18
9822;BME280;4950;46.042;14.472;2022-07-01T03:16:22;97720.13;;;22.17;73.87
9822;BME280;4950;46.042;14.472;2022-07-01T03:18:50;97715.06;;;22.15;73.75
9822;BME280;4950;46.042;14.472;2022-07-01T03:21:16;97708.69;;;22.11;73.55
9822;BME280;4950;46.042;14.472;2022-07-01T03:23:43;97718.94;;;22.02;73.44
9822;BME280;4950;46.042;14.472;2022-07-01T03:26:10;97724.19;;;21.97;74.29
9822;BME280;4950;46.042;14.472;2022-07-01T03:28:36;97731.31;;;21.97;74.13
9822;BME280;4950;46.042;14.472;2022-07-01T03:31:03;97734.22;;;21.95;74.68
9822;BME280;4950;46.042;14.472;2022-07-01T03:33:30;97735.25;;;21.94;74.09
9822;BME280;4950;46.042;14.472;2022-07-01T03:35:58;97740.53;;;21.94;74.17
9822;BME280;4950;46.042;14.472;2022-07-01T03:38:24;97745.28;;;21.92;74.11
9822;BME280;4950;46.042;14.472;2022-07-01T03:40:51;97743.13;;;21.89;74.40
9822;BME280;4950;46.042;14.472;2022-07-01T03:43:18;97744.75;;;21.90;74.87
9822;BME280;4950;46.042;14.472;2022-07-01T03:45:45;97751.59;;;21.91;74.62
9822;BME280;4950;46.042;14.472;2022-07-01T03:48:11;97759.28;;;21.93;74.14
9822;BME280;4950;46.042;14.472;2022-07-01T03:50:38;97754.25;;;21.91;74.27
9822;BME280;4950;46.042;14.472;2022-07-01T03:53:07;97756.34;;;21.89;74.32
9822;BME280;4950;46.042;14.472;2022-07-01T03:55:51;97760.84;;;21.88;74.42
9822;BME280;4950;46.042;14.472;2022-07-01T03:58:17;97756.88;;;21.86;74.66
9822;BME280;4950;46.042;14.472;2022-07-01T04:00:44;97758.19;;;21.83;74.28
9822;BME280;4950;46.042;14.472;2022-07-01T04:03:11;97755.53;;;21.83;74.54
9822;BME280;4950;46.042;14.472;2022-07-01T04:05:38;97756.56;;;21.82;74.42
9822;BME280;4950;46.042;14.472;2022-07-01T04:08:07;97759.75;;;21.84;74.73
9822;BME280;4950;46.042;14.472;2022-07-01T04:10:37;97766.09;;;21.83;74.96
9822;BME280;4950;46.042;14.472;2022-07-01T04:13:04;97762.63;;;21.83;74.98
9822;BME280;4950;46.042;14.472;2022-07-01T04:15:31;97755.53;;;21.83;74.73
9822;BME280;4950;46.042;14.472;2022-07-01T04:17:58;97765.81;;;21.85;74.82
9822;BME280;4950;46.042;14.472;2022-07-01T04:20:25;97757.34;;;21.83;74.99
9822;BME280;4950;46.042;14.472;2022-07-01T04:25:18;97761.59;;;21.84;74.64
9822;BME280;4950;46.042;14.472;2022-07-01T04:27:45;97762.16;;;21.86;75.25
9822;BME280;4950;46.042;14.472;2022-07-01T04:30:12;97762.69;;;21.88;74.94
9822;BME280;4950;46.042;14.472;2022-07-01T04:32:39;97774.06;;;21.88;74.81
9822;BME280;4950;46.042;14.472;2022-07-01T04:35:07;97772.72;;;21.86;75.32
9822;BME280;4950;46.042;14.472;2022-07-01T04:37:37;97776.16;;;21.86;74.84
9822;BME280;4950;46.042;14.472;2022-07-01T04:42:32;97782.06;;;21.72;75.58
9822;BME280;4950;46.042;14.472;2022-07-01T04:44:58;97786.56;;;21.71;75.44
9822;BME280;4950;46.042;14.472;2022-07-01T04:47:24;97779.41;;;21.66;75.78
9822;BME280;4950;46.042;14.472;2022-07-01T04:49:51;97783.06;;;21.65;76.08
9822;BME280;4950;46.042;14.472;2022-07-01T04:52:18;97786.78;;;21.64;76.13
9822;BME280;4950;46.042;14.472;2022-07-01T04:54:44;97787.09;;;21.68;76.38
9822;BME280;4950;46.042;14.472;2022-07-01T04:57:11;97794.25;;;21.73;76.48
9822;BME280;4950;46.042;14.472;2022-07-01T04:59:39;97790.59;;;21.74;76.80
9822;BME280;4950;46.042;14.472;2022-07-01T05:02:06;97795.66;;;21.80;76.84
9822;BME280;4950;46.042;14.472;2022-07-01T05:04:33;97791.47;;;21.84;76.41
9822;BME280;4950;46.042;14.472;2022-07-01T05:06:59;97801.28;;;21.89;76.36
9822;BME280;4950;46.042;14.472;2022-07-01T05:09:26;97787.59;;;21.92;76.70
9822;BME280;4950;46.042;14.472;2022-07-01T05:11:52;97797.41;;;21.97;76.71
9822;BME280;4950;46.042;14.472;2022-07-01T05:14:19;97791.38;;;22.01;77.11
9822;BME280;4950;46.042;14.472;2022-07-01T05:16:47;97792.47;;;22.05;77.08
9822;BME280;4950;46.042;14.472;2022-07-01T05:19:14;97799.09;;;22.08;76.79
9822;BME280;4950;46.042;14.472;2022-07-01T05:21:58;97798.31;;;22.07;76.97
9822;BME280;4950;46.042;14.472;2022-07-01T05:24:26;97805.72;;;22.11;77.20
9822;BME280;4950;46.042;14.472;2022-07-01T05:26:57;97805.22;;;22.14;76.97
9822;BME280;4950;46.042;14.472;2022-07-01T05:29:24;97806.31;;;22.18;76.76
9822;BME280;4950;46.042;14.472;2022-07-01T05:31:52;97803.19;;;22.21;76.39
9822;BME280;4950;46.042;14.472;2022-07-01T05:34:19;97808.41;;;22.16;76.23
9822;BME280;4950;46.042;14.472;2022-07-01T05:36:45;97816.34;;;22.16;76.80
9822;BME280;4950;46.042;14.472;2022-07-01T05:39:12;97812.41;;;22.18;77.11
9822;BME280;4950;46.042;14.472;2022-07-01T05:41:39;97809.81;;;22.23;77.12
9822;BME280;4950;46.042;14.472;2022-07-01T05:44:06;97808.53;;;22.26;76.27
9822;BME280;4950;46.042;14.472;2022-07-01T05:46:32;97812.81;;;22.32;76.48
9822;BME280;4950;46.042;14.472;2022-07-01T05:49:01;97809.19;;;22.38;76.28
9822;BME280;4950;46.042;14.472;2022-07-01T05:51:27;97811.84;;;22.43;76.02
9822;BME280;4950;46.042;14.472;2022-07-01T05:53:54;97812.94;;;22.47;76.20
9822;BME280;4950;46.042;14.472;2022-07-01T05:56:23;97806.91;;;22.52;75.61
9822;BME280;4950;46.042;14.472;2022-07-01T05:58:50;97808.00;;;22.56;75.29
9822;BME280;4950;46.042;14.472;2022-07-01T06:01:17;97809.09;;;22.60;75.17
9822;BME280;4950;46.042;14.472;2022-07-01T06:03:44;97812.56;;;22.66;75.01
9822;BME280;4950;46.042;14.472;2022-07-01T06:06:12;97812.34;;;22.73;75.01
9822;BME280;4950;46.042;14.472;2022-07-01T06:08:39;97810.75;;;22.77;74.95
9822;BME280;4950;46.042;14.472;2022-07-01T06:11:05;97811.84;;;22.81;74.64
9822;BME280;4950;46.042;14.472;2022-07-01T06:13:32;97808.47;;;22.85;73.36
9822;BME280;4950;46.042;14.472;2022-07-01T06:15:59;97802.91;;;22.87;73.03
9822;BME280;4950;46.042;14.472;2022-07-01T06:18:26;97802.94;;;22.92;72.63
9822;BME280;4950;46.042;14.472;2022-07-01T06:20:52;97804.53;;;22.98;72.27
9822;BME280;4950;46.042;14.472;2022-07-01T06:23:20;97816.25;;;23.02;72.51
9822;BME280;4950;46.042;14.472;2022-07-01T06:25:47;97807.56;;;23.07;71.99
9822;BME280;4950;46.042;14.472;2022-07-01T06:28:14;97804.91;;;23.12;72.27
9822;BME280;4950;46.042;14.472;2022-07-01T06:30:41;97799.66;;;23.17;71.47
9822;BME280;4950;46.042;14.472;2022-07-01T06:33:10;97798.91;;;23.27;71.65
9822;BME280;4950;46.042;14.472;2022-07-01T06:35:38;97794.41;;;23.33;71.13
9822;BME280;4950;46.042;14.472;2022-07-01T06:38:04;97802.13;;;23.39;71.57
9822;BME280;4950;46.042;14.472;2022-07-01T06:40:33;97791.81;;;23.43;71.71
9822;BME280;4950;46.042;14.472;2022-07-01T06:42:59;97792.63;;;23.49;71.35
9822;BME280;4950;46.042;14.472;2022-07-01T06:45:26;97783.88;;;23.53;71.36
9822;BME280;4950;46.042;14.472;2022-07-01T06:47:53;97788.41;;;23.58;71.20
9822;BME280;4950;46.042;14.472;2022-07-01T06:50:19;97792.94;;;23.62;70.57
9822;BME280;4950;46.042;14.472;2022-07-01T06:52:46;97792.69;;;23.74;69.32
9822;BME280;4950;46.042;14.472;2022-07-01T06:55:13;97793.56;;;23.85;68.64
9822;BME280;4950;46.042;14.472;2022-07-01T06:57:41;97797.53;;;23.93;66.78
9822;BME280;4950;46.042;14.472;2022-07-01T07:00:09;97789.84;;;24.01;66.58
9822;BME280;4950;46.042;14.472;2022-07-01T07:02:35;97788.25;;;24.05;66.56
9822;BME280;4950;46.042;14.472;2022-07-01T07:05:02;97793.84;;;24.09;66.68
9822;BME280;4950;46.042;14.472;2022-07-01T07:07:29;97789.84;;;24.12;67.11
9822;BME280;4950;46.042;14.472;2022-07-01T07:09:56;97786.97;;;24.18;64.98
9822;BME280;4950;46.042;14.472;2022-07-01T07:12:22;97786.94;;;24.23;64.13
9822;BME280;4950;46.042;14.472;2022-07-01T07:14:50;97791.22;;;24.30;63.17
9822;BME280;4950;46.042;14.472;2022-07-01T07:17:17;97789.88;;;24.37;63.30
9822;BME280;4950;46.042;14.472;2022-07-01T07:19:44;97784.56;;;24.42;63.30
9822;BME280;4950;46.042;14.472;2022-07-01T07:22:11;97779.78;;;24.44;63.38
9822;BME280;4950;46.042;14.472;2022-07-01T07:24:37;97780.34;;;24.52;63.45
9822;BME280;4950;46.042;14.472;2022-07-01T07:27:04;97786.44;;;24.57;62.97
9822;BME280;4950;46.042;14.472;2022-07-01T07:29:31;97771.84;;;24.65;62.83
9822;BME280;4950;46.042;14.472;2022-07-01T07:31:59;97771.28;;;24.73;62.40
9822;BME280;4950;46.042;14.472;2022-07-01T07:34:26;97770.72;;;24.81;62.42
9822;BME280;4950;46.042;14.472;2022-07-01T07:36:52;97770.47;;;24.88;61.95
9822;BME280;4950;46.042;14.472;2022-07-01T07:39:19;97763.78;;;25.01;62.18
9822;BME280;4950;46.042;14.472;2022-07-01T07:41:46;97768.78;;;25.18;61.33
9822;BME280;4950;46.042;14.472;2022-07-01T07:44:12;97764.78;;;25.26;60.63
9822;BME280;4950;46.042;14.472;2022-07-01T07:46:39;97763.69;;;25.37;60.80
9822;BME280;4950;46.042;14.472;2022-07-01T07:49:07;97757.78;;;25.45;60.57
9822;BME280;4950;46.042;14.472;2022-07-01T07:51:34;97762.25;;;25.50;60.19
9822;BME280;4950;46.042;14.472;2022-07-01T07:54:01;97760.13;;;25.52;59.81
9822;BME280;4950;46.042;14.472;2022-07-01T07:56:28;97760.66;;;25.54;60.60
9822;BME280;4950;46.042;14.472;2022-07-01T07:58:55;97767.00;;;25.58;60.83
9822;BME280;4950;46.042;14.472;2022-07-01T08:01:21;97763.78;;;25.66;60.40
9822;BME280;4950;46.042;14.472;2022-07-01T08:03:48;97763.19;;;25.74;60.12
9822;BME280;4950;46.042;14.472;2022-07-01T08:06:17;97758.34;;;25.81;60.65
9822;BME280;4950;46.042;14.472;2022-07-01T08:08:44;97763.91;;;25.85;60.33
9822;BME280;4950;46.042;14.472;2022-07-01T08:11:12;97754.31;;;25.94;60.43
9822;BME280;4950;46.042;14.472;2022-07-01T08:13:39;97764.34;;;26.03;59.92
9822;BME280;4950;46.042;14.472;2022-07-01T08:16:05;97757.88;;;26.14;59.70
9822;BME280;4950;46.042;14.472;2022-07-01T08:18:32;97760.97;;;26.26;59.57
9822;BME280;4950;46.042;14.472;2022-07-01T08:20:59;97763.34;;;26.33;59.34
9822;BME280;4950;46.042;14.472;2022-07-01T08:23:27;97759.78;;;26.43;59.38
9822;BME280;4950;46.042;14.472;2022-07-01T08:25:54;97746.97;;;26.45;59.30
9822;BME280;4950;46.042;14.472;2022-07-01T08:28:20;97748.00;;;26.49;59.28
9822;BME280;4950;46.042;14.472;2022-07-01T08:30:47;97747.38;;;26.62;58.37
9822;BME280;4950;46.042;14.472;2022-07-01T08:33:14;97750.44;;;26.74;57.71
9822;BME280;4950;46.042;14.472;2022-07-01T08:35:40;97741.06;;;26.77;57.20
9822;BME280;4950;46.042;14.472;2022-07-01T08:38:07;97735.63;;;26.87;57.26
9822;BME280;4950;46.042;14.472;2022-07-01T08:40:35;97731.84;;;26.93;56.96
9822;BME280;4950;46.042;14.472;2022-07-01T08:43:05;97738.19;;;26.97;57.50
9822;BME280;4950;46.042;14.472;2022-07-01T08:45:33;97729.34;;;27.02;57.69
9822;BME280;4950;46.042;14.472;2022-07-01T08:48:02;97734.38;;;27.04;55.85
9822;BME280;4950;46.042;14.472;2022-07-01T08:50:29;97727.63;;;27.11;55.91
9822;BME280;4950;46.042;14.472;2022-07-01T08:52:57;97732.81;;;27.27;56.52
9822;BME280;4950;46.042;14.472;2022-07-01T08:55:24;97728.84;;;27.43;54.99
9822;BME280;4950;46.042;14.472;2022-07-01T08:57:52;97729.69;;;27.57;53.94
9822;BME280;4950;46.042;14.472;2022-07-01T09:00:19;97727.19;;;27.66;53.22
9822;BME280;4950;46.042;14.472;2022-07-01T09:02:50;97730.56;;;27.72;52.76
9822;BME280;4950;46.042;14.472;2022-07-01T09:05:17;97734.69;;;27.83;52.14
9822;BME280;4950;46.042;14.472;2022-07-01T09:07:44;97738.63;;;27.86;52.42
9822;BME280;4950;46.042;14.472;2022-07-01T09:10:12;97727.13;;;27.90;51.88
9822;BME280;4950;46.042;14.472;2022-07-01T09:12:40;97726.16;;;28.00;51.30
9822;BME280;4950;46.042;14.472;2022-07-01T09:15:20;97727.38;;;28.08;50.54
9822;BME280;4950;46.042;14.472;2022-07-01T09:17:50;97723.75;;;28.17;49.46
9822;BME280;4950;46.042;14.472;2022-07-01T09:20:24;97726.22;;;28.28;49.32
9822;BME280;4950;46.042;14.472;2022-07-01T09:23:02;97723.47;;;28.33;49.50
9822;BME280;4950;46.042;14.472;2022-07-01T09:25:32;97723.28;;;28.43;48.96
9822;BME280;4950;46.042;14.472;2022-07-01T09:28:06;97729.06;;;28.50;47.31
9822;BME280;4950;46.042;14.472;2022-07-01T09:30:35;97724.22;;;28.52;47.50
9822;BME280;4950;46.042;14.472;2022-07-01T09:33:10;97714.75;;;28.60;47.72
9822;BME280;4950;46.042;14.472;2022-07-01T09:35:38;97713.97;;;28.73;47.58
9822;BME280;4950;46.042;14.472;2022-07-01T09:38:07;97713.47;;;28.85;46.55
9822;BME280;4950;46.042;14.472;2022-07-01T09:40:47;97709.69;;;29.00;45.95
9822;BME280;4950;46.042;14.472;2022-07-01T09:43:15;97703.16;;;29.06;45.19
9822;BME280;4950;46.042;14.472;2022-07-01T09:45:54;97700.59;;;29.15;45.20
9822;BME280;4950;46.042;14.472;2022-07-01T09:48:23;97704.81;;;29.30;43.32
9822;BME280;4950;46.042;14.472;2022-07-01T09:50:50;97707.06;;;29.37;42.94
9822;BME280;4950;46.042;14.472;2022-07-01T09:53:17;97707.66;;;29.47;43.23
9822;BME280;4950;46.042;14.472;2022-07-01T09:55:44;97711.34;;;29.60;43.72
9822;BME280;4950;46.042;14.472;2022-07-01T09:58:11;97698.66;;;29.66;42.67
9822;BME280;4950;46.042;14.472;2022-07-01T10:00:38;97697.53;;;29.81;40.91
9822;BME280;4950;46.042;14.472;2022-07-01T10:03:06;97701.84;;;29.90;40.77
9822;BME280;4950;46.042;14.472;2022-07-01T10:05:47;97695.28;;;29.97;40.28
9822;BME280;4950;46.042;14.472;2022-07-01T10:08:37;97693.28;;;30.02;40.86
9822;BME280;4950;46.042;14.472;2022-07-01T10:11:43;97686.38;;;30.10;41.21
9822;BME280;4950;46.042;14.472;2022-07-01T10:14:14;97682.50;;;30.25;40.10
9822;BME280;4950;46.042;14.472;2022-07-01T10:16:45;97682.28;;;30.35;39.54
9822;BME280;4950;46.042;14.472;2022-07-01T10:19:29;97681.69;;;30.47;39.97
9822;BME280;4950;46.042;14.472;2022-07-01T10:21:59;97689.28;;;30.54;40.56
9822;BME280;4950;46.042;14.472;2022-07-01T10:24:27;97677.97;;;30.65;39.72
9822;BME280;4950;46.042;14.472;2022-07-01T10:26:59;97675.94;;;30.62;38.71
9822;BME280;4950;46.042;14.472;2022-07-01T10:29:27;97680.16;;;30.63;39.75
9822;BME280;4950;46.042;14.472;2022-07-01T10:31:59;97675.16;;;30.70;39.64
9822;BME280;4950;46.042;14.472;2022-07-01T10:34:33;97672.00;;;30.77;39.09
9822;BME280;4950;46.042;14.472;2022-07-01T10:37:01;97673.28;;;30.80;39.13
9822;BME280;4950;46.042;14.472;2022-07-01T10:39:28;97665.09;;;30.85;39.66
9822;BME280;4950;46.042;14.472;2022-07-01T10:42:00;97673.03;;;30.90;39.82
9822;BME280;4950;46.042;14.472;2022-07-01T10:44:29;97673.81;;;30.99;38.21
9822;BME280;4950;46.042;14.472;2022-07-01T10:47:05;97669.72;;;31.10;38.34
9822;BME280;4950;46.042;14.472;2022-07-01T10:49:54;97671.00;;;31.22;37.97
9822;BME280;4950;46.042;14.472;2022-07-01T10:52:21;97667.84;;;31.28;38.71
9822;BME280;4950;46.042;14.472;2022-07-01T10:54:51;97668.47;;;31.34;38.12
9822;BME280;4950;46.042;14.472;2022-07-01T10:57:21;97667.69;;;31.34;37.66
9822;BME280;4950;46.042;14.472;2022-07-01T10:59:50;97666.75;;;31.38;37.01
9822;BME280;4950;46.042;14.472;2022-07-01T11:02:19;97670.06;;;31.35;36.53
9822;BME280;4950;46.042;14.472;2022-07-01T11:04:47;97663.28;;;31.38;37.01
9822;BME280;4950;46.042;14.472;2022-07-01T11:07:15;97665.81;;;31.43;37.39
9822;BME280;4950;46.042;14.472;2022-07-01T11:09:42;97661.41;;;31.56;37.28
9822;BME280;4950;46.042;14.472;2022-07-01T11:12:09;97663.63;;;31.62;37.30
9822;BME280;4950;46.042;14.472;2022-07-01T11:14:36;97650.34;;;31.66;37.07
9822;BME280;4950;46.042;14.472;2022-07-01T11:17:04;97652.84;;;31.71;38.43
9822;BME280;4950;46.042;14.472;2022-07-01T11:19:31;97645.28;;;31.82;37.84
9822;BME280;4950;46.042;14.472;2022-07-01T11:21:58;97646.97;;;31.86;37.17
9822;BME280;4950;46.042;14.472;2022-07-01T11:24:26;97649.03;;;31.90;37.53
9822;BME280;4950;46.042;14.472;2022-07-01T11:26:57;97646.16;;;31.95;38.61
9822;BME280;4950;46.042;14.472;2022-07-01T11:29:28;97640.03;;;32.03;37.53
9822;BME280;4950;46.042;14.472;2022-07-01T11:31:55;97639.53;;;32.10;36.18
9822;BME280;4950;46.042;14.472;2022-07-01T11:34:21;97637.00;;;32.13;36.90
9822;BME280;4950;46.042;14.472;2022-07-01T11:36:48;97625.13;;;32.14;36.69
9822;BME280;4950;46.042;14.472;2022-07-01T11:39:34;97630.50;;;32.14;35.83
9822;BME280;4950;46.042;14.472;2022-07-01T11:42:04;97626.25;;;32.13;35.65
9822;BME280;4950;46.042;14.472;2022-07-01T11:44:33;97617.34;;;32.21;36.41
9822;BME280;4950;46.042;14.472;2022-07-01T11:47:03;97623.28;;;32.36;36.57
9822;BME280;4950;46.042;14.472;2022-07-01T11:49:30;97623.66;;;32.55;35.52
9822;BME280;4950;46.042;14.472;2022-07-01T11:51:58;97617.69;;;32.58;34.28
9822;BME280;4950;46.042;14.472;2022-07-01T11:54:25;97625.03;;;32.70;34.68
9822;BME280;4950;46.042;14.472;2022-07-01T11:56:54;97618.50;;;32.80;34.97
9822;BME280;4950;46.042;14.472;2022-07-01T11:59:21;97613.75;;;32.77;34.95
9822;BME280;4950;46.042;14.472;2022-07-01T12:01:51;97615.47;;;32.81;35.50
9822;BME280;4950;46.042;14.472;2022-07-01T12:04:18;97608.94;;;32.91;35.00
9822;BME280;4950;46.042;14.472;2022-07-01T12:06:46;97618.84;;;32.99;34.10
9822;BME280;4950;46.042;14.472;2022-07-01T12:09:14;97610.75;;;32.99;34.33
9822;BME280;4950;46.042;14.472;2022-07-01T12:11:44;97619.09;;;33.07;35.47
9822;BME280;4950;46.042;14.472;2022-07-01T12:14:19;97617.13;;;33.16;34.32
9822;BME280;4950;46.042;14.472;2022-07-01T12:16:45;97610.13;;;33.23;34.83
9822;BME280;4950;46.042;14.472;2022-07-01T12:19:12;97600.25;;;33.28;33.91
9822;BME280;4950;46.042;14.472;2022-07-01T12:21:50;97604.00;;;33.35;34.59
9822;BME280;4950;46.042;14.472;2022-07-01T12:24:17;97603.59;;;33.46;33.79
9822;BME280;4950;46.042;14.472;2022-07-01T12:26:49;97595.03;;;33.43;33.59
9822;BME280;4950;46.042;14.472;2022-07-01T12:29:18;97586.31;;;33.47;33.99
9822;BME280;4950;46.042;14.472;2022-07-01T12:31:57;97583.81;;;33.41;34.15
9822;BME280;4950;46.042;14.472;2022-07-01T12:34:36;97579.81;;;33.48;34.52
9822;BME280;4950;46.042;14.472;2022-07-01T12:37:08;97585.22;;;33.60;34.91
9822;BME280;4950;46.042;14.472;2022-07-01T12:39:42;97573.28;;;33.70;33.49
9822;BME280;4950;46.042;14.472;2022-07-01T12:42:20;97570.72;;;33.73;33.26
9822;BME280;4950;46.042;14.472;2022-07-01T12:44:49;97572.06;;;33.79;32.82
9822;BME280;4950;46.042;14.472;2022-07-01T12:47:18;97568.34;;;33.84;33.82
9822;BME280;4950;46.042;14.472;2022-07-01T12:49:44;97578.78;;;33.73;33.13
9822;BME280;4950;46.042;14.472;2022-07-01T12:52:23;97575.84;;;33.78;32.09
9822;BME280;4950;46.042;14.472;2022-07-01T12:54:49;97582.50;;;33.81;32.68
9822;BME280;4950;46.042;14.472;2022-07-01T12:57:16;97588.66;;;33.69;33.13
9822;BME280;4950;46.042;14.472;2022-07-01T12:59:43;97583.72;;;33.71;32.93
9822;BME280;4950;46.042;14.472;2022-07-01T13:02:11;97575.97;;;33.70;33.07
9822;BME280;4950;46.042;14.472;2022-07-01T13:04:38;97575.09;;;33.78;32.72
9822;BME280;4950;46.042;14.472;2022-07-01T13:07:04;97581.69;;;33.68;33.23
9822;BME280;4950;46.042;14.472;2022-07-01T13:09:31;97584.28;;;33.77;36.06
9822;BME280;4950;46.042;14.472;2022-07-01T13:11:58;97577.69;;;33.53;37.08
9822;BME280;4950;46.042;14.472;2022-07-01T13:14:24;97584.47;;;33.26;37.80
9822;BME280;4950;46.042;14.472;2022-07-01T13:16:51;97582.53;;;33.05;38.57
9822;BME280;4950;46.042;14.472;2022-07-01T13:19:19;97592.97;;;32.86;39.43
9822;BME280;4950;46.042;14.472;2022-07-01T13:21:46;97594.66;;;32.91;39.27